Time;durP1;ratioP1;P1;durP2;ratioP2;P2;SDS_P1;SDS_P2;PMS_P1;PMS_P2;Temp;Humidity;BMP_temperature;BMP_pressure;BME280_temperature;BME280_humidity;BME280_pressure;Samples;Min_cycle;Max_cycle;Signal;HPM_P1;HPM_P2
2024/01/24 00:01:57;;;;;;;5.90;1.80;;;10.20;1.00;;;;;;5039452;28;20919;-76
2024/01/24 00:04:22;;;;;;;9.07;2.00;;;10.30;1.00;;;;;;5039581;28;20182;-77
2024/01/24 00:06:49;;;;;;;5.87;1.57;;;10.30;1.00;;;;;;5043454;28;20701;-76
2024/01/24 00:09:14;;;;;;;9.27;2.47;;;10.40;1.00;;;;;;5045271;28;20178;-74
2024/01/24 00:11:40;;;;;;;6.07;1.73;;;10.40;1.00;;;;;;5031777;28;20424;-76
2024/01/24 00:14:05;;;;;;;3.67;1.67;;;10.40;1.00;;;;;;5031725;28;20228;-76
2024/01/24 00:16:31;;;;;;;5.77;1.93;;;10.40;1.00;;;;;;5035038;28;20189;-79
2024/01/24 00:18:57;;;;;;;11.07;2.43;;;10.40;1.00;;;;;;5030883;28;20206;-77
2024/01/24 00:21:22;;;;;;;3.83;1.43;;;10.50;1.00;;;;;;5044325;28;20197;-76
2024/01/24 00:23:47;;;;;;;8.37;1.60;;;10.50;1.00;;;;;;5050946;28;20447;-81
2024/01/24 00:26:13;;;;;;;6.23;1.67;;;10.60;1.00;;;;;;5042897;28;20901;-77
2024/01/24 00:28:39;;;;;;;8.33;1.90;;;10.60;1.00;;;;;;5046191;28;20507;-76
2024/01/24 00:31:04;;;;;;;7.07;1.97;;;10.70;1.00;;;;;;5040411;28;20231;-77
2024/01/24 00:33:30;;;;;;;5.40;1.97;;;10.70;1.00;;;;;;5031561;28;20533;-77
2024/01/24 00:35:55;;;;;;;7.43;1.60;;;10.70;1.00;;;;;;5039787;28;20544;-81
2024/01/24 00:38:21;;;;;;;6.10;1.80;;;10.70;1.00;;;;;;5038610;28;20220;-79
2024/01/24 00:40:46;;;;;;;7.93;1.73;;;10.70;1.00;;;;;;5049981;28;20205;-76
2024/01/24 00:43:12;;;;;;;12.03;2.23;;;10.70;1.00;;;;;;5039784;28;20720;-80
2024/01/24 00:45:37;;;;;;;5.63;1.87;;;10.80;1.00;;;;;;5042817;28;20204;-77
2024/01/24 00:48:03;;;;;;;4.33;1.93;;;10.80;1.00;;;;;;5030279;28;20270;-77
2024/01/24 00:50:30;;;;;;;3.63;1.23;;;10.80;1.00;;;;;;5038407;28;20202;-76
2024/01/24 00:52:55;;;;;;;5.60;1.63;;;10.80;1.00;;;;;;5037092;28;20181;-78
2024/01/24 00:55:22;;;;;;;8.50;1.67;;;10.90;1.00;;;;;;5030555;28;20475;-78
2024/01/24 00:57:47;;;;;;;6.27;1.57;;;10.80;1.00;;;;;;5035734;28;20185;-78
2024/01/24 01:00:13;;;;;;;6.90;1.83;;;10.90;1.00;;;;;;5039453;28;20471;-80
2024/01/24 01:02:39;;;;;;;5.30;1.90;;;10.90;1.00;;;;;;5038690;28;20209;-81
2024/01/24 01:05:05;;;;;;;5.63;1.70;;;11.00;1.00;;;;;;5033019;28;20981;-78
2024/01/24 01:07:30;;;;;;;4.60;1.43;;;11.00;1.00;;;;;;5038750;28;20682;-77
2024/01/24 01:09:56;;;;;;;5.00;1.60;;;11.10;1.00;;;;;;5042964;28;20455;-80
2024/01/24 01:12:21;;;;;;;9.20;1.80;;;11.10;1.00;;;;;;5043051;28;20252;-80
2024/01/24 01:14:47;;;;;;;8.60;1.93;;;11.10;1.00;;;;;;5039479;28;20475;-76
2024/01/24 01:17:12;;;;;;;4.33;1.50;;;11.10;1.00;;;;;;5042311;28;20190;-77
2024/01/24 01:19:38;;;;;;;4.83;1.90;;;11.10;1.00;;;;;;5034762;28;20337;-77
2024/01/24 01:22:04;;;;;;;3.30;1.60;;;11.10;1.00;;;;;;5040786;28;20185;-76
2024/01/24 01:24:29;;;;;;;5.93;2.10;;;11.20;1.00;;;;;;5044228;28;20185;-77
2024/01/24 01:26:55;;;;;;;6.23;1.80;;;11.20;1.00;;;;;;5040428;28;20296;-75
2024/01/24 01:29:20;;;;;;;9.60;1.90;;;11.20;1.00;;;;;;5038310;28;20186;-80
2024/01/24 01:31:46;;;;;;;9.93;2.00;;;11.20;1.00;;;;;;5031962;28;20182;-80
2024/01/24 01:34:11;;;;;;;7.77;1.83;;;11.30;1.00;;;;;;5036927;28;20180;-77
2024/01/24 01:36:37;;;;;;;4.60;1.77;;;11.20;1.00;;;;;;5029447;28;20499;-82
2024/01/24 01:39:04;;;;;;;4.43;1.60;;;11.40;1.00;;;;;;5030891;28;20186;-79
2024/01/24 01:41:29;;;;;;;9.10;1.70;;;11.40;1.00;;;;;;5033165;28;20668;-77
2024/01/24 01:43:55;;;;;;;5.93;1.60;;;11.40;1.00;;;;;;5028536;28;20531;-80
2024/01/24 01:46:22;;;;;;;5.27;1.87;;;11.40;1.00;;;;;;5029307;28;20214;-77
2024/01/24 01:48:49;;;;;;;3.60;1.77;;;11.40;1.00;;;;;;5038799;28;20232;-77
2024/01/24 01:51:16;;;;;;;11.73;1.63;;;11.40;1.00;;;;;;5039863;28;20976;-77
2024/01/24 01:53:44;;;;;;;4.33;2.40;;;11.40;1.00;;;;;;5043651;28;20411;-78
2024/01/24 01:56:12;;;;;;;4.83;1.73;;;11.40;1.00;;;;;;5045790;28;20411;-77
2024/01/24 01:58:39;;;;;;;6.50;2.20;;;11.40;1.00;;;;;;5030247;28;20424;-76
2024/01/24 02:01:06;;;;;;;5.40;1.57;;;11.40;1.00;;;;;;5043012;28;20464;-77
2024/01/24 02:03:32;;;;;;;4.77;1.57;;;11.50;1.00;;;;;;5047528;28;20937;-79
2024/01/24 02:05:58;;;;;;;5.60;1.90;;;11.40;1.00;;;;;;5044946;28;20486;-80
2024/01/24 02:08:23;;;;;;;3.97;1.80;;;11.40;1.00;;;;;;5037676;28;20227;-76
2024/01/24 02:10:49;;;;;;;5.43;2.00;;;11.40;1.00;;;;;;5032527;28;20194;-77
2024/01/24 02:13:14;;;;;;;3.37;1.53;;;11.50;1.00;;;;;;5034200;28;20174;-76
2024/01/24 02:15:40;;;;;;;7.10;1.80;;;11.40;1.00;;;;;;5037139;28;20288;-76
2024/01/24 02:18:06;;;;;;;4.23;1.83;;;11.50;1.00;;;;;;5031009;28;20596;-76
2024/01/24 02:20:32;;;;;;;5.27;1.80;;;11.60;1.00;;;;;;5045450;28;20555;-76
2024/01/24 02:22:58;;;;;;;5.27;1.90;;;11.60;1.00;;;;;;5050755;28;20606;-77
2024/01/24 02:25:23;;;;;;;3.53;1.53;;;11.70;1.00;;;;;;5050930;28;20539;-76
2024/01/24 02:27:49;;;;;;;4.50;1.80;;;11.70;1.00;;;;;;5051707;28;20204;-77
2024/01/24 02:30:15;;;;;;;3.97;1.70;;;11.70;1.00;;;;;;5038294;28;20563;-80
2024/01/24 02:32:40;;;;;;;4.07;1.80;;;11.70;1.00;;;;;;5045753;28;20285;-77
2024/01/24 02:35:06;;;;;;;3.10;1.47;;;11.80;1.00;;;;;;5040912;28;20703;-76
2024/01/24 02:37:32;;;;;;;5.60;1.77;;;11.80;1.00;;;;;;5047724;28;20219;-77
2024/01/24 02:39:58;;;;;;;4.73;1.50;;;11.70;1.00;;;;;;5035136;28;20964;-77
2024/01/24 02:42:23;;;;;;;5.70;2.17;;;11.70;1.00;;;;;;5038311;28;20275;-80
2024/01/24 02:44:49;;;;;;;7.10;2.00;;;11.80;1.00;;;;;;5044118;28;20243;-76
2024/01/24 02:47:15;;;;;;;6.00;2.00;;;11.80;1.00;;;;;;5037090;28;20309;-77
2024/01/24 02:49:40;;;;;;;3.10;1.43;;;11.90;1.00;;;;;;5042803;28;20690;-77
2024/01/24 02:52:06;;;;;;;4.03;1.53;;;11.90;1.00;;;;;;5044328;28;20531;-80
2024/01/24 02:54:32;;;;;;;5.47;1.53;;;11.90;1.00;;;;;;5040090;28;20178;-78
2024/01/24 02:56:57;;;;;;;3.63;1.70;;;11.90;1.00;;;;;;5039423;28;20184;-77
2024/01/24 02:59:23;;;;;;;11.10;2.47;;;12.00;1.00;;;;;;5040498;28;20239;-78
2024/01/24 03:01:49;;;;;;;2.90;1.43;;;12.00;1.00;;;;;;5046804;28;20268;-77
2024/01/24 03:04:14;;;;;;;4.33;1.50;;;12.00;1.00;;;;;;5049938;28;20507;-80
2024/01/24 03:06:41;;;;;;;2.57;1.60;;;12.00;1.00;;;;;;5042428;28;20229;-77
2024/01/24 03:09:07;;;;;;;2.20;1.43;;;12.10;1.00;;;;;;5043297;28;20169;-77
2024/01/24 03:11:32;;;;;;;3.10;1.87;;;12.10;1.00;;;;;;5036308;28;20444;-76
2024/01/24 03:13:58;;;;;;;4.67;1.67;;;12.20;1.00;;;;;;5047647;28;20419;-76
2024/01/24 03:16:24;;;;;;;5.23;1.40;;;12.20;1.00;;;;;;5036401;28;20193;-78
2024/01/24 03:18:51;;;;;;;4.70;1.40;;;12.20;1.00;;;;;;5045845;28;20246;-76
2024/01/24 03:21:17;;;;;;;3.80;1.50;;;12.20;1.00;;;;;;5041414;28;20258;-77
2024/01/24 03:23:43;;;;;;;3.33;1.40;;;12.30;1.00;;;;;;5032144;28;20462;-77
2024/01/24 03:26:09;;;;;;;3.17;1.47;;;12.30;1.00;;;;;;5044094;28;20475;-77
2024/01/24 03:28:35;;;;;;;2.40;1.40;;;12.30;1.00;;;;;;5031557;28;20941;-77
2024/01/24 03:31:02;;;;;;;4.90;1.70;;;12.30;1.00;;;;;;5042487;28;20331;-76
2024/01/24 03:33:28;;;;;;;1.97;1.20;;;12.20;1.00;;;;;;5050275;28;20235;-76
2024/01/24 03:35:53;;;;;;;6.27;1.57;;;12.30;1.00;;;;;;5041081;28;20787;-76
2024/01/24 03:38:19;;;;;;;4.20;1.50;;;12.30;1.00;;;;;;5047038;28;20424;-79
2024/01/24 03:40:45;;;;;;;4.63;1.40;;;12.30;1.00;;;;;;5034311;28;20202;-76
2024/01/24 03:43:12;;;;;;;3.17;1.30;;;12.30;1.00;;;;;;5043538;28;20993;-77
2024/01/24 03:45:38;;;;;;;2.87;1.33;;;12.30;1.00;;;;;;5038278;28;20515;-77
2024/01/24 03:48:05;;;;;;;4.03;1.43;;;12.20;1.00;;;;;;5034572;28;20421;-77
2024/01/24 03:50:31;;;;;;;3.00;1.60;;;12.30;1.00;;;;;;5041896;28;20429;-80
2024/01/24 03:52:56;;;;;;;10.23;1.60;;;12.20;1.00;;;;;;5030598;28;20791;-78
2024/01/24 03:55:22;;;;;;;3.73;1.20;;;12.30;1.00;;;;;;5043013;28;20651;-76
2024/01/24 03:57:47;;;;;;;1.93;1.27;;;12.30;1.00;;;;;;5036582;28;20651;-77
2024/01/24 04:00:14;;;;;;;4.27;1.43;;;12.30;1.00;;;;;;5038294;28;20202;-82
2024/01/24 04:02:40;;;;;;;6.23;1.57;;;12.30;1.00;;;;;;5032850;28;20186;-77
2024/01/24 04:05:06;;;;;;;3.43;1.10;;;12.30;1.00;;;;;;5033454;28;20507;-77
2024/01/24 04:07:32;;;;;;;4.87;1.40;;;12.30;1.00;;;;;;5038464;28;20583;-77
2024/01/24 04:09:58;;;;;;;2.70;1.30;;;12.40;1.00;;;;;;5035918;28;20447;-81
2024/01/24 04:12:24;;;;;;;2.23;1.67;;;12.40;1.00;;;;;;5041363;28;20177;-77
2024/01/24 04:14:50;;;;;;;2.17;1.40;;;12.40;1.00;;;;;;5035558;28;20945;-78
2024/01/24 04:17:15;;;;;;;3.10;1.20;;;12.50;1.00;;;;;;5041044;28;20651;-77
2024/01/24 04:19:41;;;;;;;2.77;1.30;;;12.50;1.00;;;;;;5042806;28;20747;-79
2024/01/24 04:22:08;;;;;;;1.90;1.30;;;12.50;1.00;;;;;;5048915;28;20600;-76
2024/01/24 04:24:34;;;;;;;4.40;1.40;;;12.50;1.00;;;;;;5040778;28;20184;-82
2024/01/24 04:26:59;;;;;;;7.73;1.87;;;12.50;1.00;;;;;;5031037;28;20802;-77
2024/01/24 04:29:25;;;;;;;5.70;1.50;;;12.50;1.00;;;;;;5043924;28;20190;-77
2024/01/24 04:31:50;;;;;;;3.23;1.50;;;12.50;1.00;;;;;;5044289;28;20227;-75
2024/01/24 04:34:18;;;;;;;3.47;1.60;;;12.40;1.00;;;;;;5044589;28;20256;-76
2024/01/24 04:36:44;;;;;;;2.03;1.33;;;12.50;1.00;;;;;;5030269;28;20208;-78
2024/01/24 04:39:12;;;;;;;3.90;1.50;;;12.50;1.00;;;;;;5046466;28;20419;-76
2024/01/24 04:41:38;;;;;;;5.50;1.77;;;12.50;1.00;;;;;;5035854;28;20198;-78
2024/01/24 04:44:04;;;;;;;2.20;1.33;;;12.50;1.00;;;;;;5042094;28;20484;-79
2024/01/24 04:46:30;;;;;;;4.20;1.33;;;12.50;1.00;;;;;;5031705;28;20284;-80
2024/01/24 04:48:55;;;;;;;2.80;1.30;;;12.50;1.00;;;;;;5042978;28;20507;-78
2024/01/24 04:51:22;;;;;;;3.90;1.40;;;12.50;1.00;;;;;;5038044;28;20706;-76
2024/01/24 04:53:48;;;;;;;4.20;1.87;;;12.50;1.00;;;;;;5043231;28;20700;-78
2024/01/24 04:56:14;;;;;;;2.20;1.00;;;12.50;1.00;;;;;;5033439;28;20429;-80
2024/01/24 04:58:42;;;;;;;4.20;1.47;;;12.50;1.00;;;;;;5033385;28;20193;-78
2024/01/24 05:01:08;;;;;;;3.40;1.73;;;12.50;1.00;;;;;;5040570;28;20440;-78
2024/01/24 05:03:33;;;;;;;4.00;1.70;;;12.60;1.00;;;;;;5037847;28;20534;-76
2024/01/24 05:05:59;;;;;;;1.70;1.23;;;12.60;1.00;;;;;;5039493;28;20193;-80
2024/01/24 05:08:25;;;;;;;1.97;1.30;;;12.60;1.00;;;;;;5041355;28;20166;-79
2024/01/24 05:10:51;;;;;;;2.00;1.17;;;12.60;1.00;;;;;;5036692;28;20443;-77
2024/01/24 05:13:16;;;;;;;5.70;1.30;;;12.70;1.00;;;;;;5030930;28;20178;-80
2024/01/24 05:15:42;;;;;;;4.13;1.50;;;12.70;1.00;;;;;;5034523;28;20223;-76
2024/01/24 05:18:07;;;;;;;1.50;1.30;;;12.70;1.00;;;;;;5041965;28;20182;-76
2024/01/24 05:20:33;;;;;;;2.90;1.27;;;12.70;1.00;;;;;;5040894;28;20293;-79
2024/01/24 05:22:59;;;;;;;4.30;1.60;;;12.70;1.00;;;;;;5042326;28;20238;-80
2024/01/24 05:25:24;;;;;;;2.30;1.20;;;12.70;1.00;;;;;;5053411;28;20713;-76
2024/01/24 05:27:50;;;;;;;4.53;1.30;;;12.70;1.00;;;;;;5049223;28;20197;-78
2024/01/24 05:30:15;;;;;;;5.13;1.57;;;12.80;1.00;;;;;;5041580;28;20189;-77
2024/01/24 05:32:41;;;;;;;2.00;1.10;;;12.90;1.00;;;;;;5035219;28;20180;-80
2024/01/24 05:35:07;;;;;;;1.33;1.00;;;12.80;1.00;;;;;;5031294;28;20660;-76
2024/01/24 05:37:32;;;;;;;2.40;1.20;;;12.80;1.00;;;;;;5035481;28;20200;-76
2024/01/24 05:39:58;;;;;;;2.40;1.13;;;12.80;1.00;;;;;;5054358;28;20204;-77
2024/01/24 05:42:23;;;;;;;5.80;1.47;;;12.80;1.00;;;;;;5037887;28;20184;-77
2024/01/24 05:44:49;;;;;;;3.40;1.83;;;12.80;1.00;;;;;;5045090;28;20200;-75
2024/01/24 05:47:15;;;;;;;2.50;1.20;;;12.90;1.00;;;;;;5045803;28;20205;-76
2024/01/24 05:49:41;;;;;;;4.23;1.67;;;12.90;1.00;;;;;;5053997;28;20431;-76
2024/01/24 05:52:06;;;;;;;2.90;1.40;;;12.90;1.00;;;;;;5041463;28;20182;-77
2024/01/24 05:54:32;;;;;;;1.40;1.20;;;12.80;1.00;;;;;;5044245;28;20564;-82
2024/01/24 05:56:58;;;;;;;1.60;1.23;;;12.80;1.00;;;;;;5045638;28;20182;-77
2024/01/24 05:59:23;;;;;;;3.40;1.23;;;12.80;1.00;;;;;;5045513;28;20181;-78
2024/01/24 06:01:50;;;;;;;2.30;1.10;;;12.80;1.00;;;;;;5040097;28;20174;-79
2024/01/24 06:04:15;;;;;;;2.30;1.10;;;12.80;1.00;;;;;;5038028;28;20249;-78
2024/01/24 06:06:41;;;;;;;2.13;1.20;;;12.80;1.00;;;;;;5041410;28;20554;-78
2024/01/24 06:09:06;;;;;;;3.93;1.30;;;12.80;1.00;;;;;;5046780;28;20177;-77
2024/01/24 06:11:32;;;;;;;2.53;1.27;;;12.80;1.00;;;;;;5033515;28;20228;-77
2024/01/24 06:13:57;;;;;;;2.27;1.20;;;12.90;1.00;;;;;;5034088;28;20185;-78
2024/01/24 06:16:23;;;;;;;2.10;1.20;;;12.90;1.00;;;;;;5046933;28;20181;-81
2024/01/24 06:18:48;;;;;;;2.27;1.40;;;12.90;1.00;;;;;;5036224;28;20189;-78
2024/01/24 06:21:14;;;;;;;1.30;1.10;;;12.90;1.00;;;;;;5050786;28;20715;-79
2024/01/24 06:23:39;;;;;;;1.27;1.00;;;12.90;1.00;;;;;;5050594;28;20204;-79
2024/01/24 06:26:05;;;;;;;1.43;1.00;;;12.90;1.00;;;;;;5040770;28;20589;-76
2024/01/24 06:28:31;;;;;;;3.10;1.30;;;12.90;1.00;;;;;;5040389;28;20205;-76
2024/01/24 06:30:57;;;;;;;2.17;1.20;;;12.90;1.00;;;;;;5048797;28;20276;-77
2024/01/24 06:33:24;;;;;;;2.43;1.30;;;12.80;1.00;;;;;;5034703;28;20504;-75
2024/01/24 06:35:49;;;;;;;1.10;0.90;;;12.80;1.00;;;;;;5053525;28;20170;-77
2024/01/24 06:38:15;;;;;;;1.17;1.03;;;12.80;1.00;;;;;;5044248;28;20411;-77
2024/01/24 06:40:41;;;;;;;2.10;1.00;;;12.80;1.00;;;;;;5033540;28;20615;-78
2024/01/24 06:43:06;;;;;;;2.83;0.97;;;12.80;1.00;;;;;;5039505;28;20188;-77
2024/01/24 06:45:32;;;;;;;1.93;1.30;;;12.80;1.00;;;;;;5051024;28;20542;-77
2024/01/24 06:47:58;;;;;;;2.57;1.30;;;12.90;1.00;;;;;;5037428;28;20194;-77
2024/01/24 06:50:24;;;;;;;2.07;1.10;;;12.80;1.00;;;;;;5043166;28;20189;-82
2024/01/24 06:52:50;;;;;;;1.77;1.17;;;12.80;1.00;;;;;;5040495;28;20174;-78
2024/01/24 06:55:16;;;;;;;1.43;0.93;;;12.90;1.00;;;;;;5034131;28;20439;-77
2024/01/24 06:57:42;;;;;;;2.93;1.10;;;12.80;1.00;;;;;;5045471;28;20458;-79
2024/01/24 07:00:09;;;;;;;2.07;1.00;;;12.70;1.00;;;;;;5041699;28;20484;-77
2024/01/24 07:02:36;;;;;;;2.13;1.40;;;12.80;1.00;;;;;;5041274;28;20220;-80
2024/01/24 07:05:03;;;;;;;3.50;1.30;;;12.70;1.00;;;;;;5047162;28;20422;-78
2024/01/24 07:07:28;;;;;;;6.03;1.00;;;12.70;1.00;;;;;;5042117;28;20487;-77
2024/01/24 07:09:54;;;;;;;1.57;1.00;;;12.60;1.00;;;;;;5035461;28;20511;-77
2024/01/24 07:12:22;;;;;;;1.53;1.00;;;12.60;1.00;;;;;;5040930;28;20303;-78
2024/01/24 07:14:50;;;;;;;1.83;1.20;;;12.60;1.00;;;;;;5045491;28;20663;-80
2024/01/24 07:17:16;;;;;;;1.90;1.20;;;12.50;1.00;;;;;;5036349;28;20419;-79
2024/01/24 07:19:42;;;;;;;2.10;0.80;;;12.50;1.00;;;;;;5040413;28;20860;-83
2024/01/24 07:22:08;;;;;;;1.40;1.00;;;12.50;1.00;;;;;;5034429;28;20239;-75
2024/01/24 07:24:33;;;;;;;1.37;0.90;;;12.50;1.00;;;;;;5035349;28;20427;-75
2024/01/24 07:26:59;;;;;;;2.37;1.03;;;12.60;1.00;;;;;;5040831;28;20676;-75
2024/01/24 07:29:24;;;;;;;5.60;1.20;;;12.70;1.00;;;;;;5046869;28;20189;-78
2024/01/24 07:31:50;;;;;;;4.13;1.00;;;12.60;1.00;;;;;;5042876;28;20166;-75
2024/01/24 07:34:16;;;;;;;2.60;1.00;;;12.60;1.00;;;;;;5043614;28;20260;-77
2024/01/24 07:36:42;;;;;;;1.60;1.00;;;12.60;1.00;;;;;;5040550;28;20197;-75
2024/01/24 07:39:07;;;;;;;1.67;1.00;;;12.60;1.00;;;;;;5045173;28;20416;-76
2024/01/24 07:41:33;;;;;;;1.40;0.90;;;12.60;1.00;;;;;;5037942;28;20206;-79
2024/01/24 07:43:59;;;;;;;1.17;1.00;;;12.60;1.00;;;;;;5041000;28;20637;-78
2024/01/24 07:46:26;;;;;;;1.53;0.93;;;12.60;1.00;;;;;;5042928;28;20209;-80
2024/01/24 07:48:52;;;;;;;1.40;1.00;;;12.60;1.00;;;;;;5050714;28;20874;-75
2024/01/24 07:51:18;;;;;;;1.93;0.90;;;12.60;1.00;;;;;;5040816;28;20440;-75
2024/01/24 07:53:44;;;;;;;2.27;0.90;;;12.60;1.00;;;;;;5044391;28;20178;-78
2024/01/24 07:56:12;;;;;;;2.20;0.93;;;12.70;1.00;;;;;;5032711;28;20182;-79
2024/01/24 07:58:40;;;;;;;1.10;0.80;;;13.00;1.00;;;;;;5036759;28;20181;-83
2024/01/24 08:01:09;;;;;;;1.43;0.90;;;13.10;1.00;;;;;;5044252;28;20538;-80
2024/01/24 08:03:35;;;;;;;2.00;1.00;;;13.20;1.00;;;;;;5044927;28;20428;-77
2024/01/24 08:06:00;;;;;;;3.33;1.10;;;13.10;1.00;;;;;;5042050;28;20459;-74
2024/01/24 08:08:26;;;;;;;1.97;1.10;;;12.90;1.00;;;;;;5034299;28;20189;-82
2024/01/24 08:10:52;;;;;;;1.30;1.10;;;12.70;1.00;;;;;;5043634;28;20271;-79
2024/01/24 08:13:17;;;;;;;1.87;1.00;;;12.60;1.00;;;;;;5041972;28;20640;-78
2024/01/24 08:15:43;;;;;;;1.23;0.97;;;12.60;1.00;;;;;;5044750;28;20408;-77
2024/01/24 08:18:08;;;;;;;2.00;1.03;;;12.60;1.00;;;;;;5031808;28;20174;-77
2024/01/24 08:20:34;;;;;;;1.10;1.00;;;12.60;1.00;;;;;;5031177;28;20201;-77
2024/01/24 08:23:00;;;;;;;1.33;0.97;;;12.70;1.00;;;;;;5034299;28;20658;-76
2024/01/24 08:25:26;;;;;;;1.40;1.00;;;12.80;1.00;;;;;;5041999;28;20183;-76
2024/01/24 08:27:52;;;;;;;1.20;0.80;;;12.80;1.00;;;;;;5040003;28;20683;-76
2024/01/24 08:30:19;;;;;;;1.63;0.90;;;12.80;1.00;;;;;;5041916;28;20441;-76
2024/01/24 08:32:44;;;;;;;1.03;0.90;;;12.80;1.00;;;;;;5035780;28;20486;-76
2024/01/24 08:35:10;;;;;;;2.17;0.93;;;12.70;1.00;;;;;;5043068;28;20412;-77
2024/01/24 08:37:35;;;;;;;1.17;0.90;;;12.60;1.00;;;;;;5041207;28;20551;-78
2024/01/24 08:40:01;;;;;;;1.67;1.10;;;12.60;1.00;;;;;;5043311;28;20212;-78
2024/01/24 08:42:26;;;;;;;2.33;1.10;;;12.60;1.00;;;;;;5031991;28;20181;-78
2024/01/24 08:44:52;;;;;;;1.00;0.80;;;12.60;1.00;;;;;;5038920;28;20200;-77
2024/01/24 08:47:18;;;;;;;1.00;0.80;;;12.60;1.00;;;;;;5030723;28;20201;-77
2024/01/24 08:49:43;;;;;;;1.90;0.87;;;12.60;1.00;;;;;;5044647;28;20201;-77
2024/01/24 08:52:08;;;;;;;1.30;0.87;;;12.60;1.00;;;;;;5035345;28;20184;-77
2024/01/24 08:54:34;;;;;;;1.83;0.80;;;12.60;1.00;;;;;;5045732;28;20588;-77
2024/01/24 08:56:59;;;;;;;1.23;0.80;;;12.90;1.00;;;;;;5032224;28;20189;-76
2024/01/24 08:59:25;;;;;;;6.80;1.20;;;;;;;;;;5036131;28;20173;-77
2024/01/24 09:01:55;;;;;;;1.67;1.00;;;12.60;1.00;;;;;;5039421;28;20221;-77
2024/01/24 09:04:20;;;;;;;1.53;1.40;;;12.70;1.00;;;;;;5041472;28;20184;-80
2024/01/24 09:06:46;;;;;;;1.40;1.10;;;14.50;1.00;;;;;;5048088;28;21025;-76
2024/01/24 09:09:13;;;;;;;1.37;0.97;;;12.70;1.00;;;;;;5030264;28;20177;-76
2024/01/24 09:11:40;;;;;;;1.30;0.87;;;12.70;1.00;;;;;;5041881;28;20199;-76
2024/01/24 09:14:05;;;;;;;1.50;0.97;;;12.60;1.00;;;;;;5039609;28;20438;-76
2024/01/24 09:16:31;;;;;;;1.40;0.80;;;12.60;1.00;;;;;;5044412;28;20882;-76
2024/01/24 09:18:56;;;;;;;1.00;0.80;;;12.60;1.00;;;;;;5033536;28;20270;-75
2024/01/24 09:21:22;;;;;;;1.63;0.90;;;12.60;1.00;;;;;;5035671;28;20207;-79
2024/01/24 09:23:49;;;;;;;1.00;0.80;;;12.60;1.00;;;;;;5042184;28;20238;-77
2024/01/24 09:26:15;;;;;;;1.03;0.77;;;12.60;1.00;;;;;;5037606;28;20753;-76
2024/01/24 09:28:41;;;;;;;1.03;0.70;;;12.60;1.00;;;;;;5047352;28;20411;-75
2024/01/24 09:31:06;;;;;;;1.33;1.00;;;12.60;1.00;;;;;;5034296;28;20206;-76
2024/01/24 09:33:32;;;;;;;1.87;1.00;;;12.60;1.00;;;;;;5040444;28;20204;-76
2024/01/24 09:35:58;;;;;;;2.03;0.80;;;;;;;;;;5029789;28;20552;-77
2024/01/24 09:38:23;;;;;;;1.10;0.80;;;12.60;1.00;;;;;;5035132;28;20169;-77
2024/01/24 09:40:50;;;;;;;0.97;0.80;;;;;;;;;;5028854;28;20197;-80
2024/01/24 09:43:18;;;;;;;1.10;0.73;;;12.60;1.00;;;;;;5030246;28;20169;-76
2024/01/24 09:45:44;;;;;;;1.30;1.00;;;12.70;1.00;;;;;;5039330;28;20496;-73
2024/01/24 09:48:11;;;;;;;1.03;0.80;;;12.90;1.00;;;;;;5036569;28;20427;-77
2024/01/24 09:50:37;;;;;;;1.00;0.70;;;12.90;1.00;;;;;;5031185;28;20429;-76
2024/01/24 09:53:07;;;;;;;2.70;1.00;;;13.00;1.00;;;;;;5031540;28;20424;-78
2024/01/24 09:55:33;;;;;;;2.53;1.03;;;13.00;1.00;;;;;;5037068;28;20179;-77
2024/01/24 09:57:59;;;;;;;1.47;1.00;;;13.10;1.00;;;;;;5033357;28;20432;-78
2024/01/24 10:00:25;;;;;;;1.00;0.90;;;13.10;1.00;;;;;;5044878;28;20439;-81
2024/01/24 10:02:50;;;;;;;1.87;0.93;;;13.00;1.00;;;;;;5037758;28;20185;-77
2024/01/24 10:05:18;;;;;;;1.13;1.00;;;13.00;1.00;;;;;;5044737;28;20559;-80
2024/01/24 10:07:44;;;;;;;1.37;1.07;;;12.90;1.00;;;;;;5039139;28;20208;-76
2024/01/24 10:10:12;;;;;;;1.40;1.00;;;12.80;1.00;;;;;;5037600;28;20817;-77
2024/01/24 10:12:38;;;;;;;3.90;1.90;;;12.80;1.00;;;;;;5039537;28;20181;-76
2024/01/24 10:15:05;;;;;;;2.23;1.10;;;12.80;1.00;;;;;;5033155;28;20416;-77
2024/01/24 10:17:31;;;;;;;2.40;0.90;;;12.80;1.00;;;;;;5042071;28;20420;-77
2024/01/24 10:19:57;;;;;;;3.40;1.10;;;12.80;1.00;;;;;;5038229;28;20512;-76
2024/01/24 10:22:23;;;;;;;2.27;1.03;;;13.20;1.00;;;;;;5042314;28;20443;-74
2024/01/24 10:24:49;;;;;;;4.30;1.63;;;14.00;1.00;;;;;;5046614;28;20412;-77
2024/01/24 10:27:14;;;;;;;2.47;1.00;;;14.30;1.00;;;;;;5048754;28;20553;-76
2024/01/24 10:29:42;;;;;;;1.77;1.10;;;15.30;1.00;;;;;;5052351;28;20197;-79
2024/01/24 10:32:11;;;;;;;1.17;0.90;;;15.50;1.00;;;;;;5036202;28;20628;-81
2024/01/24 10:34:37;;;;;;;1.90;1.07;;;15.90;1.00;;;;;;5035243;28;20428;-78
2024/01/24 10:37:06;;;;;;;3.80;1.10;;;15.90;1.00;;;;;;5041712;28;20513;-78
2024/01/24 10:39:34;;;;;;;2.33;1.00;;;16.40;1.00;;;;;;5043306;28;20496;-81
2024/01/24 10:42:03;;;;;;;1.40;1.00;;;16.50;1.00;;;;;;5044271;28;20423;-76
2024/01/24 10:44:32;;;;;;;2.30;1.40;;;17.40;1.00;;;;;;5045129;28;20475;-78
2024/01/24 10:46:59;;;;;;;4.40;1.87;;;18.10;1.00;;;;;;5034014;28;20553;-78
2024/01/24 10:49:27;;;;;;;2.20;1.23;;;19.30;1.00;;;;;;5039985;28;20444;-81
2024/01/24 10:51:53;;;;;;;1.90;1.10;;;19.30;1.00;;;;;;5044229;28;20789;-79
2024/01/24 10:54:21;;;;;;;3.23;1.07;;;20.10;1.00;;;;;;5045770;28;20420;-79
2024/01/24 10:56:50;;;;;;;3.07;1.17;;;20.90;1.00;;;;;;5039576;28;20432;-78
2024/01/24 10:59:16;;;;;;;2.00;0.90;;;21.50;1.00;;;;;;5039336;28;20416;-81
2024/01/24 11:01:42;;;;;;;3.17;1.33;;;22.10;1.00;;;;;;5044066;28;20454;-80
2024/01/24 11:04:09;;;;;;;3.60;1.20;;;22.80;1.00;;;;;;5041262;28;20426;-77
2024/01/24 11:06:41;;;;;;;3.63;1.27;;;22.70;1.00;;;;;;5045564;28;20777;-79
2024/01/24 11:09:24;;;;;;;4.67;1.20;;;22.70;1.00;;;;;;5034753;28;20794;-77
2024/01/24 11:11:53;;;;;;;2.70;1.10;;;22.30;1.00;;;;;;5043705;28;20431;-77
2024/01/24 11:14:29;;;;;;;5.03;1.50;;;22.30;1.00;;;;;;5044765;28;20485;-79
2024/01/24 11:16:57;;;;;;;2.60;1.00;;;22.20;1.00;;;;;;5034211;28;20530;-77
2024/01/24 11:19:24;;;;;;;2.97;1.00;;;22.90;1.00;;;;;;5047652;28;20426;-77
2024/01/24 11:21:51;;;;;;;2.40;1.07;;;22.80;1.00;;;;;;5037370;28;20480;-84
2024/01/24 11:24:42;;;;;;;3.37;1.10;;;23.30;1.00;;;;;;5041859;28;20489;-81
2024/01/24 11:27:33;;;;;;;4.30;1.20;;;23.50;1.00;;;;;;5047997;28;20451;-78
2024/01/24 11:30:11;;;;;;;3.90;1.17;;;23.30;1.00;;;;;;5039979;28;20805;-77
2024/01/24 11:32:47;;;;;;;4.50;1.10;;;23.20;1.00;;;;;;5037401;28;20447;-79
2024/01/24 11:35:31;;;;;;;5.40;1.20;;;23.10;1.00;;;;;;5049104;28;20429;-75
2024/01/24 11:38:20;;;;;;;2.70;1.13;;;22.90;1.00;;;;;;5047840;28;20416;-75
2024/01/24 11:40:47;;;;;;;3.30;1.10;;;20.90;1.00;;;;;;5040141;28;20435;-75
2024/01/24 11:43:33;;;;;;;2.10;1.00;;;19.70;1.00;;;;;;5042163;28;20945;-80
2024/01/24 11:46:03;;;;;;;3.30;1.20;;;18.80;1.00;;;;;;5037686;28;20449;-76
2024/01/24 11:48:31;;;;;;;5.33;1.30;;;18.30;1.00;;;;;;5038677;28;21138;-75
2024/01/24 11:51:01;;;;;;;2.23;1.00;;;17.40;1.00;;;;;;5045742;28;20772;-76
2024/01/24 11:53:28;;;;;;;2.23;1.00;;;17.10;1.00;;;;;;5047103;28;20570;-76
2024/01/24 11:55:58;;;;;;;2.27;1.00;;;16.80;1.00;;;;;;5039978;28;20413;-76
2024/01/24 11:58:26;;;;;;;2.77;1.30;;;16.50;1.00;;;;;;5039922;28;20449;-76
2024/01/24 12:01:00;;;;;;;4.13;1.20;;;16.30;1.00;;;;;;5042451;28;20458;-76
2024/01/24 12:03:26;;;;;;;2.20;1.00;;;16.10;1.00;;;;;;5034230;28;20401;-75
2024/01/24 12:05:52;;;;;;;2.90;1.10;;;16.00;1.00;;;;;;5047167;28;20418;-77
2024/01/24 12:08:18;;;;;;;2.50;1.43;;;15.90;1.00;;;;;;5039941;28;20644;-75
2024/01/24 12:10:44;;;;;;;2.10;1.30;;;15.70;1.00;;;;;;5043700;28;20489;-75
2024/01/24 12:13:11;;;;;;;2.27;1.27;;;15.70;1.00;;;;;;5042379;28;20415;-75
2024/01/24 12:15:36;;;;;;;3.73;1.20;;;15.60;1.00;;;;;;5047488;28;20180;-75
2024/01/24 12:18:09;;;;;;;2.37;1.00;;;15.50;1.00;;;;;;5039582;28;20506;-75
2024/01/24 12:20:36;;;;;;;6.17;1.40;;;15.50;1.00;;;;;;5039522;28;20197;-77
2024/01/24 12:23:02;;;;;;;4.10;1.10;;;15.60;1.00;;;;;;5040552;28;20495;-77
2024/01/24 12:25:28;;;;;;;2.90;1.50;;;15.50;1.00;;;;;;5040271;28;21118;-77
2024/01/24 12:27:56;;;;;;;5.77;1.83;;;15.50;1.00;;;;;;5042890;28;20547;-76
2024/01/24 12:30:22;;;;;;;3.87;1.20;;;15.50;1.00;;;;;;5040977;28;20435;-76
2024/01/24 12:32:48;;;;;;;2.03;1.30;;;15.60;1.00;;;;;;5042659;28;20921;-77
2024/01/24 12:35:15;;;;;;;2.77;1.10;;;15.60;1.00;;;;;;5031168;28;20236;-77
2024/01/24 12:37:41;;;;;;;4.50;1.43;;;16.00;1.00;;;;;;5035062;28;20174;-75
2024/01/24 12:40:10;;;;;;;4.87;2.03;;;17.00;1.00;;;;;;5031612;28;20807;-76
2024/01/24 12:42:37;;;;;;;3.40;1.33;;;17.00;1.00;;;;;;5035400;28;20192;-76
2024/01/24 12:45:04;;;;;;;4.80;1.37;;;17.00;1.00;;;;;;5028515;28;20882;-81
2024/01/24 12:47:31;;;;;;;4.40;1.57;;;16.80;1.00;;;;;;5035109;28;20464;-78
2024/01/24 12:49:57;;;;;;;3.13;1.60;;;16.60;1.00;;;;;;5033983;28;20534;-77
2024/01/24 12:52:22;;;;;;;4.73;1.47;;;16.70;1.00;;;;;;5035949;28;20926;-80
2024/01/24 12:54:48;;;;;;;1.90;1.20;;;17.50;1.00;;;;;;5034538;28;20185;-78